sensor_id;sensor_type;location;lat;lon;timestamp;P1;durP1;ratioP1;P2;durP2;ratioP2
8716;SDS011;4395;48.554;8.820;2022-10-17T00:00:53;3.07;;;2.13;;
8716;SDS011;4395;48.554;8.820;2022-10-17T00:02:56;3.10;;;2.03;;
8716;SDS011;4395;48.554;8.820;2022-10-17T00:04:59;8.13;;;2.20;;
8716;SDS011;4395;48.554;8.820;2022-10-17T00:07:01;2.47;;;2.03;;
8716;SDS011;4395;48.554;8.820;2022-10-17T00:09:04;3.30;;;2.03;;
8716;SDS011;4395;48.554;8.820;2022-10-17T00:11:08;6.33;;;2.20;;
8716;SDS011;4395;48.554;8.820;2022-10-17T00:13:14;7.40;;;2.47;;
8716;SDS011;4395;48.554;8.820;2022-10-17T00:15:18;1.90;;;1.80;;
8716;SDS011;4395;48.554;8.820;2022-10-17T00:17:23;2.23;;;1.83;;
8716;SDS011;4395;48.554;8.820;2022-10-17T00:19:26;2.47;;;2.07;;
8716;SDS011;4395;48.554;8.820;2022-10-17T00:21:29;4.00;;;2.30;;
8716;SDS011;4395;48.554;8.820;2022-10-17T00:23:32;4.30;;;1.70;;
8716;SDS011;4395;48.554;8.820;2022-10-17T00:25:35;2.47;;;2.20;;
8716;SDS011;4395;48.554;8.820;2022-10-17T00:27:39;2.27;;;2.07;;
8716;SDS011;4395;48.554;8.820;2022-10-17T00:29:46;2.20;;;2.00;;
8716;SDS011;4395;48.554;8.820;2022-10-17T00:31:52;1.87;;;1.77;;
8716;SDS011;4395;48.554;8.820;2022-10-17T00:33:57;5.30;;;2.30;;
8716;SDS011;4395;48.554;8.820;2022-10-17T00:36:03;3.73;;;1.80;;
8716;SDS011;4395;48.554;8.820;2022-10-17T00:38:08;5.97;;;2.07;;
8716;SDS011;4395;48.554;8.820;2022-10-17T00:40:11;3.10;;;1.93;;
8716;SDS011;4395;48.554;8.820;2022-10-17T00:42:14;6.73;;;2.30;;
8716;SDS011;4395;48.554;8.820;2022-10-17T00:46:57;3.70;;;2.50;;
8716;SDS011;4395;48.554;8.820;2022-10-17T00:49:02;4.43;;;2.33;;
8716;SDS011;4395;48.554;8.820;2022-10-17T00:51:07;4.33;;;2.10;;
8716;SDS011;4395;48.554;8.820;2022-10-17T00:53:10;2.03;;;1.83;;
8716;SDS011;4395;48.554;8.820;2022-10-17T00:55:16;4.03;;;2.07;;
8716;SDS011;4395;48.554;8.820;2022-10-17T00:57:21;4.57;;;2.77;;
8716;SDS011;4395;48.554;8.820;2022-10-17T00:59:24;3.67;;;2.10;;
8716;SDS011;4395;48.554;8.820;2022-10-17T01:01:27;5.67;;;2.07;;
8716;SDS011;4395;48.554;8.820;2022-10-17T01:03:31;3.00;;;2.30;;
8716;SDS011;4395;48.554;8.820;2022-10-17T01:05:35;2.67;;;2.40;;
8716;SDS011;4395;48.554;8.820;2022-10-17T01:07:39;5.83;;;2.17;;
8716;SDS011;4395;48.554;8.820;2022-10-17T01:09:44;4.57;;;2.33;;
8716;SDS011;4395;48.554;8.820;2022-10-17T01:11:48;5.00;;;2.40;;
8716;SDS011;4395;48.554;8.820;2022-10-17T01:13:58;4.33;;;2.47;;
8716;SDS011;4395;48.554;8.820;2022-10-17T01:16:07;3.23;;;2.60;;
8716;SDS011;4395;48.554;8.820;2022-10-17T01:18:19;3.27;;;2.90;;
8716;SDS011;4395;48.554;8.820;2022-10-17T01:20:40;2.90;;;2.60;;
8716;SDS011;4395;48.554;8.820;2022-10-17T01:23:05;6.43;;;3.10;;
8716;SDS011;4395;48.554;8.820;2022-10-17T01:25:22;5.27;;;3.10;;
8716;SDS011;4395;48.554;8.820;2022-10-17T01:27:36;5.13;;;3.20;;
8716;SDS011;4395;48.554;8.820;2022-10-17T01:30:02;4.23;;;3.50;;
8716;SDS011;4395;48.554;8.820;2022-10-17T01:32:18;5.40;;;3.73;;
8716;SDS011;4395;48.554;8.820;2022-10-17T01:34:28;5.33;;;3.10;;
8716;SDS011;4395;48.554;8.820;2022-10-17T01:36:36;3.13;;;2.77;;
8716;SDS011;4395;48.554;8.820;2022-10-17T01:38:47;4.67;;;3.10;;
8716;SDS011;4395;48.554;8.820;2022-10-17T01:40:54;3.10;;;2.80;;
8716;SDS011;4395;48.554;8.820;2022-10-17T01:43:04;6.50;;;3.00;;
8716;SDS011;4395;48.554;8.820;2022-10-17T01:45:13;3.47;;;2.90;;
8716;SDS011;4395;48.554;8.820;2022-10-17T01:47:23;6.43;;;3.17;;
8716;SDS011;4395;48.554;8.820;2022-10-17T01:49:30;5.83;;;3.00;;
8716;SDS011;4395;48.554;8.820;2022-10-17T01:51:36;3.67;;;2.80;;
8716;SDS011;4395;48.554;8.820;2022-10-17T01:53:44;3.97;;;2.67;;
8716;SDS011;4395;48.554;8.820;2022-10-17T01:55:51;2.80;;;2.60;;
8716;SDS011;4395;48.554;8.820;2022-10-17T01:58:00;3.07;;;2.87;;
8716;SDS011;4395;48.554;8.820;2022-10-17T02:00:07;3.10;;;2.60;;
8716;SDS011;4395;48.554;8.820;2022-10-17T02:02:14;6.37;;;3.00;;
8716;SDS011;4395;48.554;8.820;2022-10-17T02:04:21;3.97;;;2.63;;
8716;SDS011;4395;48.554;8.820;2022-10-17T02:06:25;4.13;;;3.00;;
8716;SDS011;4395;48.554;8.820;2022-10-17T02:08:39;4.70;;;3.03;;
8716;SDS011;4395;48.554;8.820;2022-10-17T02:10:44;4.77;;;2.70;;
8716;SDS011;4395;48.554;8.820;2022-10-17T02:12:55;5.17;;;3.30;;
8716;SDS011;4395;48.554;8.820;2022-10-17T02:15:09;4.17;;;2.60;;
8716;SDS011;4395;48.554;8.820;2022-10-17T02:17:26;3.60;;;2.60;;
8716;SDS011;4395;48.554;8.820;2022-10-17T02:19:46;5.73;;;2.77;;
8716;SDS011;4395;48.554;8.820;2022-10-17T02:21:56;3.00;;;2.80;;
8716;SDS011;4395;48.554;8.820;2022-10-17T02:24:09;4.80;;;2.93;;
8716;SDS011;4395;48.554;8.820;2022-10-17T02:26:24;3.43;;;2.87;;
8716;SDS011;4395;48.554;8.820;2022-10-17T02:28:34;5.30;;;3.00;;
8716;SDS011;4395;48.554;8.820;2022-10-17T02:30:45;8.57;;;2.70;;
8716;SDS011;4395;48.554;8.820;2022-10-17T02:32:54;3.77;;;2.50;;
8716;SDS011;4395;48.554;8.820;2022-10-17T02:35:02;7.33;;;2.67;;
8716;SDS011;4395;48.554;8.820;2022-10-17T02:37:09;5.47;;;3.00;;
8716;SDS011;4395;48.554;8.820;2022-10-17T02:39:14;4.13;;;2.77;;
8716;SDS011;4395;48.554;8.820;2022-10-17T02:41:18;4.37;;;3.03;;
8716;SDS011;4395;48.554;8.820;2022-10-17T02:43:25;5.53;;;2.93;;
8716;SDS011;4395;48.554;8.820;2022-10-17T02:45:28;3.23;;;2.93;;
8716;SDS011;4395;48.554;8.820;2022-10-17T02:47:40;4.13;;;2.83;;
8716;SDS011;4395;48.554;8.820;2022-10-17T02:49:51;5.53;;;2.67;;
8716;SDS011;4395;48.554;8.820;2022-10-17T02:51:59;4.50;;;2.83;;
8716;SDS011;4395;48.554;8.820;2022-10-17T02:54:08;3.67;;;2.70;;
8716;SDS011;4395;48.554;8.820;2022-10-17T02:56:17;2.70;;;2.50;;
8716;SDS011;4395;48.554;8.820;2022-10-17T02:58:22;6.63;;;2.43;;
8716;SDS011;4395;48.554;8.820;2022-10-17T03:00:31;3.30;;;2.90;;
8716;SDS011;4395;48.554;8.820;2022-10-17T03:02:38;2.80;;;2.50;;
8716;SDS011;4395;48.554;8.820;2022-10-17T03:04:43;3.50;;;2.67;;
8716;SDS011;4395;48.554;8.820;2022-10-17T03:06:49;2.43;;;2.23;;
8716;SDS011;4395;48.554;8.820;2022-10-17T03:08:53;4.33;;;2.40;;
8716;SDS011;4395;48.554;8.820;2022-10-17T03:10:56;2.80;;;2.60;;
8716;SDS011;4395;48.554;8.820;2022-10-17T03:13:00;3.27;;;2.90;;
8716;SDS011;4395;48.554;8.820;2022-10-17T03:15:05;4.07;;;2.70;;
8716;SDS011;4395;48.554;8.820;2022-10-17T03:17:08;3.17;;;2.73;;
8716;SDS011;4395;48.554;8.820;2022-10-17T03:19:11;2.97;;;2.40;;
8716;SDS011;4395;48.554;8.820;2022-10-17T03:21:14;6.17;;;3.00;;
8716;SDS011;4395;48.554;8.820;2022-10-17T03:23:16;3.60;;;2.67;;
8716;SDS011;4395;48.554;8.820;2022-10-17T03:25:22;3.60;;;2.37;;
8716;SDS011;4395;48.554;8.820;2022-10-17T03:27:25;3.00;;;2.70;;
8716;SDS011;4395;48.554;8.820;2022-10-17T03:29:28;5.43;;;3.30;;
8716;SDS011;4395;48.554;8.820;2022-10-17T03:31:32;2.80;;;2.27;;
8716;SDS011;4395;48.554;8.820;2022-10-17T03:33:36;2.50;;;2.27;;
8716;SDS011;4395;48.554;8.820;2022-10-17T03:35:39;2.80;;;2.60;;
8716;SDS011;4395;48.554;8.820;2022-10-17T03:37:43;4.77;;;2.60;;
8716;SDS011;4395;48.554;8.820;2022-10-17T03:39:46;8.97;;;2.90;;
8716;SDS011;4395;48.554;8.820;2022-10-17T03:41:50;3.87;;;2.70;;
8716;SDS011;4395;48.554;8.820;2022-10-17T03:43:53;7.73;;;2.40;;
8716;SDS011;4395;48.554;8.820;2022-10-17T03:45:57;4.87;;;3.30;;
8716;SDS011;4395;48.554;8.820;2022-10-17T03:48:02;2.60;;;2.40;;
8716;SDS011;4395;48.554;8.820;2022-10-17T03:50:05;2.83;;;2.60;;
8716;SDS011;4395;48.554;8.820;2022-10-17T03:52:11;3.33;;;2.80;;
8716;SDS011;4395;48.554;8.820;2022-10-17T03:54:14;3.73;;;3.10;;
8716;SDS011;4395;48.554;8.820;2022-10-17T03:56:17;5.83;;;2.93;;
8716;SDS011;4395;48.554;8.820;2022-10-17T03:58:31;3.90;;;2.37;;
8716;SDS011;4395;48.554;8.820;2022-10-17T04:00:34;3.00;;;2.70;;
8716;SDS011;4395;48.554;8.820;2022-10-17T04:02:37;7.70;;;3.07;;
8716;SDS011;4395;48.554;8.820;2022-10-17T04:04:41;8.20;;;3.53;;
8716;SDS011;4395;48.554;8.820;2022-10-17T04:06:44;4.53;;;2.80;;
8716;SDS011;4395;48.554;8.820;2022-10-17T04:08:47;3.23;;;2.90;;
8716;SDS011;4395;48.554;8.820;2022-10-17T04:10:57;5.07;;;2.70;;
8716;SDS011;4395;48.554;8.820;2022-10-17T04:13:00;5.13;;;2.83;;
8716;SDS011;4395;48.554;8.820;2022-10-17T04:15:05;2.93;;;2.63;;
8716;SDS011;4395;48.554;8.820;2022-10-17T04:17:10;5.00;;;3.00;;
8716;SDS011;4395;48.554;8.820;2022-10-17T04:19:12;5.30;;;3.03;;
8716;SDS011;4395;48.554;8.820;2022-10-17T04:21:19;4.97;;;3.10;;
8716;SDS011;4395;48.554;8.820;2022-10-17T04:23:23;6.13;;;3.07;;
8716;SDS011;4395;48.554;8.820;2022-10-17T04:25:34;3.77;;;3.30;;
8716;SDS011;4395;48.554;8.820;2022-10-17T04:27:37;6.80;;;3.80;;
8716;SDS011;4395;48.554;8.820;2022-10-17T04:29:40;3.43;;;2.70;;
8716;SDS011;4395;48.554;8.820;2022-10-17T04:31:51;4.33;;;3.07;;
8716;SDS011;4395;48.554;8.820;2022-10-17T04:34:08;4.20;;;3.00;;
8716;SDS011;4395;48.554;8.820;2022-10-17T04:36:12;5.67;;;3.67;;
8716;SDS011;4395;48.554;8.820;2022-10-17T04:38:16;4.90;;;3.97;;
8716;SDS011;4395;48.554;8.820;2022-10-17T04:40:19;4.00;;;3.60;;
8716;SDS011;4395;48.554;8.820;2022-10-17T04:42:24;4.47;;;3.83;;
8716;SDS011;4395;48.554;8.820;2022-10-17T04:44:27;4.00;;;3.60;;
8716;SDS011;4395;48.554;8.820;2022-10-17T04:46:32;5.67;;;4.10;;
8716;SDS011;4395;48.554;8.820;2022-10-17T04:48:37;4.70;;;3.33;;
8716;SDS011;4395;48.554;8.820;2022-10-17T04:50:40;3.70;;;3.40;;
8716;SDS011;4395;48.554;8.820;2022-10-17T04:53:00;6.93;;;3.23;;
8716;SDS011;4395;48.554;8.820;2022-10-17T04:55:03;4.67;;;2.90;;
8716;SDS011;4395;48.554;8.820;2022-10-17T04:57:07;4.13;;;3.00;;
8716;SDS011;4395;48.554;8.820;2022-10-17T04:59:11;3.60;;;3.17;;
8716;SDS011;4395;48.554;8.820;2022-10-17T05:01:17;3.93;;;3.13;;
8716;SDS011;4395;48.554;8.820;2022-10-17T05:03:25;3.43;;;3.10;;
8716;SDS011;4395;48.554;8.820;2022-10-17T05:05:29;5.47;;;3.50;;
8716;SDS011;4395;48.554;8.820;2022-10-17T05:07:38;5.93;;;3.50;;
8716;SDS011;4395;48.554;8.820;2022-10-17T05:09:46;6.95;;;3.75;;
8716;SDS011;4395;48.554;8.820;2022-10-17T05:11:50;5.63;;;3.45;;
8716;SDS011;4395;48.554;8.820;2022-10-17T05:13:54;4.33;;;3.50;;
8716;SDS011;4395;48.554;8.820;2022-10-17T05:15:58;6.20;;;4.23;;
8716;SDS011;4395;48.554;8.820;2022-10-17T05:18:02;7.60;;;4.23;;
8716;SDS011;4395;48.554;8.820;2022-10-17T05:20:06;6.23;;;3.93;;
8716;SDS011;4395;48.554;8.820;2022-10-17T05:22:12;5.93;;;3.70;;
8716;SDS011;4395;48.554;8.820;2022-10-17T05:24:15;5.80;;;3.50;;
8716;SDS011;4395;48.554;8.820;2022-10-17T05:26:18;3.45;;;3.03;;
8716;SDS011;4395;48.554;8.820;2022-10-17T05:28:22;3.97;;;3.17;;
8716;SDS011;4395;48.554;8.820;2022-10-17T05:30:26;5.03;;;3.20;;
8716;SDS011;4395;48.554;8.820;2022-10-17T05:32:34;4.70;;;3.67;;
8716;SDS011;4395;48.554;8.820;2022-10-17T05:34:38;8.48;;;3.58;;
8716;SDS011;4395;48.554;8.820;2022-10-17T05:36:40;5.73;;;3.43;;
8716;SDS011;4395;48.554;8.820;2022-10-17T05:38:48;6.20;;;3.67;;
8716;SDS011;4395;48.554;8.820;2022-10-17T05:40:55;5.75;;;3.03;;
8716;SDS011;4395;48.554;8.820;2022-10-17T05:42:59;6.15;;;3.13;;
8716;SDS011;4395;48.554;8.820;2022-10-17T05:45:02;3.70;;;3.40;;
8716;SDS011;4395;48.554;8.820;2022-10-17T05:47:05;4.20;;;3.80;;
8716;SDS011;4395;48.554;8.820;2022-10-17T05:49:08;4.90;;;4.30;;
8716;SDS011;4395;48.554;8.820;2022-10-17T05:51:32;7.85;;;5.30;;
8716;SDS011;4395;48.554;8.820;2022-10-17T05:53:37;8.48;;;7.13;;
8716;SDS011;4395;48.554;8.820;2022-10-17T05:55:55;6.25;;;5.55;;
8716;SDS011;4395;48.554;8.820;2022-10-17T05:57:58;11.85;;;6.55;;
8716;SDS011;4395;48.554;8.820;2022-10-17T06:00:07;11.68;;;7.75;;
8716;SDS011;4395;48.554;8.820;2022-10-17T06:02:20;7.55;;;4.68;;
8716;SDS011;4395;48.554;8.820;2022-10-17T06:04:23;4.65;;;3.10;;
8716;SDS011;4395;48.554;8.820;2022-10-17T06:06:28;5.80;;;3.45;;
8716;SDS011;4395;48.554;8.820;2022-10-17T06:08:31;6.78;;;3.17;;
8716;SDS011;4395;48.554;8.820;2022-10-17T06:10:34;2.97;;;2.78;;
8716;SDS011;4395;48.554;8.820;2022-10-17T06:12:38;4.40;;;3.20;;
8716;SDS011;4395;48.554;8.820;2022-10-17T06:14:41;2.92;;;2.70;;
8716;SDS011;4395;48.554;8.820;2022-10-17T06:16:46;4.03;;;3.05;;
8716;SDS011;4395;48.554;8.820;2022-10-17T06:18:49;3.50;;;2.78;;
8716;SDS011;4395;48.554;8.820;2022-10-17T06:20:52;4.40;;;3.10;;
8716;SDS011;4395;48.554;8.820;2022-10-17T06:22:55;5.43;;;3.20;;
8716;SDS011;4395;48.554;8.820;2022-10-17T06:25:25;3.38;;;2.90;;
8716;SDS011;4395;48.554;8.820;2022-10-17T06:27:28;6.38;;;3.30;;
8716;SDS011;4395;48.554;8.820;2022-10-17T06:29:32;6.05;;;3.42;;
8716;SDS011;4395;48.554;8.820;2022-10-17T06:31:35;5.95;;;2.97;;
8716;SDS011;4395;48.554;8.820;2022-10-17T06:33:37;7.60;;;3.25;;
8716;SDS011;4395;48.554;8.820;2022-10-17T06:35:41;5.10;;;3.72;;
8716;SDS011;4395;48.554;8.820;2022-10-17T06:37:44;4.68;;;3.40;;
8716;SDS011;4395;48.554;8.820;2022-10-17T06:39:47;4.53;;;3.55;;
8716;SDS011;4395;48.554;8.820;2022-10-17T06:41:54;5.25;;;3.50;;
8716;SDS011;4395;48.554;8.820;2022-10-17T06:44:11;4.90;;;3.08;;
8716;SDS011;4395;48.554;8.820;2022-10-17T06:46:31;5.50;;;3.30;;
8716;SDS011;4395;48.554;8.820;2022-10-17T06:48:37;6.53;;;3.15;;
8716;SDS011;4395;48.554;8.820;2022-10-17T06:51:01;3.60;;;3.30;;
8716;SDS011;4395;48.554;8.820;2022-10-17T06:53:10;5.28;;;3.25;;
8716;SDS011;4395;48.554;8.820;2022-10-17T06:55:40;4.80;;;3.15;;
8716;SDS011;4395;48.554;8.820;2022-10-17T06:57:55;6.93;;;2.88;;
8716;SDS011;4395;48.554;8.820;2022-10-17T07:00:16;4.97;;;3.15;;
8716;SDS011;4395;48.554;8.820;2022-10-17T07:02:24;3.23;;;2.93;;
8716;SDS011;4395;48.554;8.820;2022-10-17T07:04:30;11.27;;;3.33;;
8716;SDS011;4395;48.554;8.820;2022-10-17T07:06:33;4.67;;;3.50;;
8716;SDS011;4395;48.554;8.820;2022-10-17T07:08:42;8.23;;;4.30;;
8716;SDS011;4395;48.554;8.820;2022-10-17T07:10:47;5.33;;;4.40;;
8716;SDS011;4395;48.554;8.820;2022-10-17T07:12:50;7.43;;;5.20;;
8716;SDS011;4395;48.554;8.820;2022-10-17T07:14:53;6.60;;;4.33;;
8716;SDS011;4395;48.554;8.820;2022-10-17T07:16:56;5.10;;;3.33;;
8716;SDS011;4395;48.554;8.820;2022-10-17T07:19:03;3.70;;;3.23;;
8716;SDS011;4395;48.554;8.820;2022-10-17T07:21:09;4.50;;;3.53;;
8716;SDS011;4395;48.554;8.820;2022-10-17T07:23:13;6.00;;;3.67;;
8716;SDS011;4395;48.554;8.820;2022-10-17T07:25:17;4.40;;;3.40;;
8716;SDS011;4395;48.554;8.820;2022-10-17T07:27:26;3.30;;;2.80;;
8716;SDS011;4395;48.554;8.820;2022-10-17T07:29:29;9.17;;;3.50;;
8716;SDS011;4395;48.554;8.820;2022-10-17T07:31:44;7.57;;;3.40;;
8716;SDS011;4395;48.554;8.820;2022-10-17T07:33:49;8.27;;;3.57;;
8716;SDS011;4395;48.554;8.820;2022-10-17T07:35:56;8.03;;;3.33;;
8716;SDS011;4395;48.554;8.820;2022-10-17T07:37:59;4.77;;;3.80;;
8716;SDS011;4395;48.554;8.820;2022-10-17T07:40:03;9.43;;;3.50;;
8716;SDS011;4395;48.554;8.820;2022-10-17T07:42:07;9.00;;;3.80;;
8716;SDS011;4395;48.554;8.820;2022-10-17T07:44:10;7.70;;;3.13;;
8716;SDS011;4395;48.554;8.820;2022-10-17T07:46:19;6.77;;;3.17;;
8716;SDS011;4395;48.554;8.820;2022-10-17T07:48:23;4.93;;;3.50;;
8716;SDS011;4395;48.554;8.820;2022-10-17T07:50:28;4.57;;;3.50;;
8716;SDS011;4395;48.554;8.820;2022-10-17T07:52:33;6.07;;;3.30;;
8716;SDS011;4395;48.554;8.820;2022-10-17T07:54:36;4.47;;;2.70;;
8716;SDS011;4395;48.554;8.820;2022-10-17T07:56:39;6.07;;;2.60;;
8716;SDS011;4395;48.554;8.820;2022-10-17T07:58:41;3.47;;;2.73;;
8716;SDS011;4395;48.554;8.820;2022-10-17T08:00:44;3.63;;;2.70;;
8716;SDS011;4395;48.554;8.820;2022-10-17T08:02:49;5.83;;;2.70;;
8716;SDS011;4395;48.554;8.820;2022-10-17T08:04:52;2.90;;;2.33;;
8716;SDS011;4395;48.554;8.820;2022-10-17T08:06:55;5.73;;;3.00;;
8716;SDS011;4395;48.554;8.820;2022-10-17T08:09:19;3.80;;;2.60;;
8716;SDS011;4395;48.554;8.820;2022-10-17T08:11:22;4.67;;;2.73;;
8716;SDS011;4395;48.554;8.820;2022-10-17T08:13:25;3.47;;;2.50;;
8716;SDS011;4395;48.554;8.820;2022-10-17T08:15:28;4.23;;;2.70;;
8716;SDS011;4395;48.554;8.820;2022-10-17T08:17:32;5.67;;;2.63;;
8716;SDS011;4395;48.554;8.820;2022-10-17T08:19:36;3.13;;;2.57;;
8716;SDS011;4395;48.554;8.820;2022-10-17T08:21:40;3.17;;;2.33;;
8716;SDS011;4395;48.554;8.820;2022-10-17T08:23:47;4.53;;;2.47;;
8716;SDS011;4395;48.554;8.820;2022-10-17T08:25:51;5.10;;;2.53;;
8716;SDS011;4395;48.554;8.820;2022-10-17T08:27:54;3.27;;;2.43;;
8716;SDS011;4395;48.554;8.820;2022-10-17T08:29:57;3.33;;;2.33;;
8716;SDS011;4395;48.554;8.820;2022-10-17T08:32:01;4.47;;;2.70;;
8716;SDS011;4395;48.554;8.820;2022-10-17T08:34:06;4.33;;;2.40;;
8716;SDS011;4395;48.554;8.820;2022-10-17T08:36:11;4.13;;;2.47;;
8716;SDS011;4395;48.554;8.820;2022-10-17T08:38:15;5.50;;;2.67;;
8716;SDS011;4395;48.554;8.820;2022-10-17T08:40:22;4.07;;;2.20;;
8716;SDS011;4395;48.554;8.820;2022-10-17T08:42:39;4.20;;;2.53;;
8716;SDS011;4395;48.554;8.820;2022-10-17T08:44:53;5.80;;;3.03;;
8716;SDS011;4395;48.554;8.820;2022-10-17T08:47:02;3.50;;;2.40;;
8716;SDS011;4395;48.554;8.820;2022-10-17T08:49:09;4.97;;;2.50;;
8716;SDS011;4395;48.554;8.820;2022-10-17T08:51:17;6.13;;;2.27;;
8716;SDS011;4395;48.554;8.820;2022-10-17T08:53:24;4.30;;;2.20;;
8716;SDS011;4395;48.554;8.820;2022-10-17T08:55:32;2.50;;;2.23;;
8716;SDS011;4395;48.554;8.820;2022-10-17T08:57:44;2.30;;;2.10;;
8716;SDS011;4395;48.554;8.820;2022-10-17T08:59:50;2.80;;;2.30;;
8716;SDS011;4395;48.554;8.820;2022-10-17T09:01:57;2.43;;;2.23;;
8716;SDS011;4395;48.554;8.820;2022-10-17T09:04:11;2.53;;;2.33;;
8716;SDS011;4395;48.554;8.820;2022-10-17T09:06:24;3.53;;;2.00;;
8716;SDS011;4395;48.554;8.820;2022-10-17T09:08:34;5.50;;;2.70;;
8716;SDS011;4395;48.554;8.820;2022-10-17T09:10:48;6.03;;;3.23;;
8716;SDS011;4395;48.554;8.820;2022-10-17T09:13:03;2.87;;;2.17;;
8716;SDS011;4395;48.554;8.820;2022-10-17T09:15:30;3.20;;;2.30;;
8716;SDS011;4395;48.554;8.820;2022-10-17T09:17:44;6.60;;;2.40;;
8716;SDS011;4395;48.554;8.820;2022-10-17T09:19:57;2.10;;;1.90;;
8716;SDS011;4395;48.554;8.820;2022-10-17T09:22:05;4.80;;;2.30;;
8716;SDS011;4395;48.554;8.820;2022-10-17T09:24:12;5.67;;;2.10;;
8716;SDS011;4395;48.554;8.820;2022-10-17T09:26:19;4.20;;;2.17;;
8716;SDS011;4395;48.554;8.820;2022-10-17T09:28:24;2.37;;;2.00;;
8716;SDS011;4395;48.554;8.820;2022-10-17T09:30:34;2.43;;;2.10;;
8716;SDS011;4395;48.554;8.820;2022-10-17T09:32:45;3.50;;;2.37;;
8716;SDS011;4395;48.554;8.820;2022-10-17T09:34:48;4.10;;;2.40;;
8716;SDS011;4395;48.554;8.820;2022-10-17T09:36:53;3.43;;;2.50;;
8716;SDS011;4395;48.554;8.820;2022-10-17T09:38:57;2.87;;;2.30;;
8716;SDS011;4395;48.554;8.820;2022-10-17T09:41:02;6.73;;;3.67;;
8716;SDS011;4395;48.554;8.820;2022-10-17T09:43:26;4.60;;;2.77;;
8716;SDS011;4395;48.554;8.820;2022-10-17T09:45:29;3.50;;;2.63;;
8716;SDS011;4395;48.554;8.820;2022-10-17T09:47:38;4.63;;;2.90;;
8716;SDS011;4395;48.554;8.820;2022-10-17T09:49:46;2.80;;;2.40;;
8716;SDS011;4395;48.554;8.820;2022-10-17T09:51:50;3.53;;;2.30;;
8716;SDS011;4395;48.554;8.820;2022-10-17T09:53:54;5.63;;;3.10;;
8716;SDS011;4395;48.554;8.820;2022-10-17T09:56:03;3.20;;;2.90;;
8716;SDS011;4395;48.554;8.820;2022-10-17T09:58:10;3.17;;;2.60;;
8716;SDS011;4395;48.554;8.820;2022-10-17T10:00:19;3.43;;;2.70;;
8716;SDS011;4395;48.554;8.820;2022-10-17T10:02:23;4.50;;;2.93;;
8716;SDS011;4395;48.554;8.820;2022-10-17T10:04:28;5.27;;;2.77;;
8716;SDS011;4395;48.554;8.820;2022-10-17T10:07:00;4.47;;;2.43;;
8716;SDS011;4395;48.554;8.820;2022-10-17T10:09:05;3.03;;;2.27;;
8716;SDS011;4395;48.554;8.820;2022-10-17T10:13:46;2.37;;;2.27;;
8716;SDS011;4395;48.554;8.820;2022-10-17T10:15:51;5.23;;;2.30;;
8716;SDS011;4395;48.554;8.820;2022-10-17T10:17:54;4.30;;;2.37;;
8716;SDS011;4395;48.554;8.820;2022-10-17T10:19:57;4.53;;;2.17;;
8716;SDS011;4395;48.554;8.820;2022-10-17T10:22:01;2.73;;;2.00;;
8716;SDS011;4395;48.554;8.820;2022-10-17T10:24:09;3.90;;;2.30;;
8716;SDS011;4395;48.554;8.820;2022-10-17T10:26:17;3.83;;;2.10;;
8716;SDS011;4395;48.554;8.820;2022-10-17T10:28:24;7.60;;;2.53;;
8716;SDS011;4395;48.554;8.820;2022-10-17T10:30:29;4.17;;;2.30;;
8716;SDS011;4395;48.554;8.820;2022-10-17T10:32:40;2.83;;;2.00;;
8716;SDS011;4395;48.554;8.820;2022-10-17T10:34:49;5.40;;;2.43;;
8716;SDS011;4395;48.554;8.820;2022-10-17T10:36:55;6.73;;;2.50;;
8716;SDS011;4395;48.554;8.820;2022-10-17T10:39:02;3.37;;;1.83;;
8716;SDS011;4395;48.554;8.820;2022-10-17T10:41:06;4.20;;;2.40;;
8716;SDS011;4395;48.554;8.820;2022-10-17T10:43:19;5.27;;;2.40;;
8716;SDS011;4395;48.554;8.820;2022-10-17T10:45:24;2.77;;;2.10;;
8716;SDS011;4395;48.554;8.820;2022-10-17T10:47:50;2.47;;;2.00;;
8716;SDS011;4395;48.554;8.820;2022-10-17T10:50:06;2.60;;;1.97;;
8716;SDS011;4395;48.554;8.820;2022-10-17T10:52:21;3.77;;;2.40;;
8716;SDS011;4395;48.554;8.820;2022-10-17T10:54:33;4.53;;;2.77;;
8716;SDS011;4395;48.554;8.820;2022-10-17T10:56:45;3.57;;;2.30;;
8716;SDS011;4395;48.554;8.820;2022-10-17T10:58:54;3.87;;;2.27;;
8716;SDS011;4395;48.554;8.820;2022-10-17T11:01:02;4.03;;;2.27;;
8716;SDS011;4395;48.554;8.820;2022-10-17T11:03:10;5.33;;;2.40;;
8716;SDS011;4395;48.554;8.820;2022-10-17T11:05:16;4.13;;;2.13;;
8716;SDS011;4395;48.554;8.820;2022-10-17T11:07:26;6.80;;;2.40;;
8716;SDS011;4395;48.554;8.820;2022-10-17T11:09:38;4.33;;;2.00;;
8716;SDS011;4395;48.554;8.820;2022-10-17T11:11:48;2.23;;;1.90;;
8716;SDS011;4395;48.554;8.820;2022-10-17T11:13:57;2.27;;;1.70;;
8716;SDS011;4395;48.554;8.820;2022-10-17T11:16:11;7.00;;;2.20;;
8716;SDS011;4395;48.554;8.820;2022-10-17T11:18:25;3.57;;;1.90;;
8716;SDS011;4395;48.554;8.820;2022-10-17T11:20:33;5.30;;;2.20;;
8716;SDS011;4395;48.554;8.820;2022-10-17T11:22:41;3.40;;;1.90;;
8716;SDS011;4395;48.554;8.820;2022-10-17T11:24:48;2.73;;;1.77;;
8716;SDS011;4395;48.554;8.820;2022-10-17T11:26:57;4.03;;;1.73;;
8716;SDS011;4395;48.554;8.820;2022-10-17T11:29:02;3.47;;;2.10;;
8716;SDS011;4395;48.554;8.820;2022-10-17T11:31:09;2.77;;;1.93;;
8716;SDS011;4395;48.554;8.820;2022-10-17T11:33:17;5.43;;;1.70;;
8716;SDS011;4395;48.554;8.820;2022-10-17T11:35:27;5.27;;;2.40;;
8716;SDS011;4395;48.554;8.820;2022-10-17T11:37:35;3.63;;;1.90;;
8716;SDS011;4395;48.554;8.820;2022-10-17T11:39:48;3.73;;;2.97;;
8716;SDS011;4395;48.554;8.820;2022-10-17T11:41:55;2.50;;;1.90;;
8716;SDS011;4395;48.554;8.820;2022-10-17T11:44:07;4.27;;;1.70;;
8716;SDS011;4395;48.554;8.820;2022-10-17T11:46:17;3.73;;;1.70;;
8716;SDS011;4395;48.554;8.820;2022-10-17T11:48:25;3.03;;;1.60;;
8716;SDS011;4395;48.554;8.820;2022-10-17T11:50:34;2.83;;;1.30;;
8716;SDS011;4395;48.554;8.820;2022-10-17T11:53:04;5.70;;;1.43;;
8716;SDS011;4395;48.554;8.820;2022-10-17T11:55:13;2.10;;;1.17;;
8716;SDS011;4395;48.554;8.820;2022-10-17T11:57:26;5.07;;;1.60;;
8716;SDS011;4395;48.554;8.820;2022-10-17T11:59:44;3.97;;;1.37;;
8716;SDS011;4395;48.554;8.820;2022-10-17T12:01:56;4.10;;;1.20;;
8716;SDS011;4395;48.554;8.820;2022-10-17T12:04:16;4.97;;;1.23;;
8716;SDS011;4395;48.554;8.820;2022-10-17T12:06:34;3.30;;;1.43;;
8716;SDS011;4395;48.554;8.820;2022-10-17T12:08:46;2.47;;;1.13;;
8716;SDS011;4395;48.554;8.820;2022-10-17T12:10:55;7.57;;;1.17;;
8716;SDS011;4395;48.554;8.820;2022-10-17T12:15:42;2.07;;;1.13;;
8716;SDS011;4395;48.554;8.820;2022-10-17T12:17:48;7.70;;;1.60;;
8716;SDS011;4395;48.554;8.820;2022-10-17T12:22:33;4.10;;;1.80;;
8716;SDS011;4395;48.554;8.820;2022-10-17T12:24:37;3.17;;;1.37;;
8716;SDS011;4395;48.554;8.820;2022-10-17T12:26:42;2.83;;;1.40;;
8716;SDS011;4395;48.554;8.820;2022-10-17T12:28:45;2.07;;;1.37;;
8716;SDS011;4395;48.554;8.820;2022-10-17T12:30:50;6.27;;;2.80;;
8716;SDS011;4395;48.554;8.820;2022-10-17T12:32:59;4.03;;;1.80;;
8716;SDS011;4395;48.554;8.820;2022-10-17T12:35:13;5.47;;;1.90;;
8716;SDS011;4395;48.554;8.820;2022-10-17T12:42:51;3.37;;;2.10;;
8716;SDS011;4395;48.554;8.820;2022-10-17T12:44:54;3.37;;;2.43;;
8716;SDS011;4395;48.554;8.820;2022-10-17T12:46:57;5.30;;;2.27;;
8716;SDS011;4395;48.554;8.820;2022-10-17T12:49:01;3.03;;;2.20;;
8716;SDS011;4395;48.554;8.820;2022-10-17T12:51:06;4.50;;;1.60;;
8716;SDS011;4395;48.554;8.820;2022-10-17T12:53:34;5.23;;;2.00;;
8716;SDS011;4395;48.554;8.820;2022-10-17T12:55:43;1.87;;;1.40;;
8716;SDS011;4395;48.554;8.820;2022-10-17T12:57:47;2.07;;;1.60;;
8716;SDS011;4395;48.554;8.820;2022-10-17T12:59:54;4.57;;;1.77;;
8716;SDS011;4395;48.554;8.820;2022-10-17T13:01:59;3.63;;;2.03;;
8716;SDS011;4395;48.554;8.820;2022-10-17T13:04:05;2.70;;;1.87;;
8716;SDS011;4395;48.554;8.820;2022-10-17T13:06:12;1.83;;;1.73;;
8716;SDS011;4395;48.554;8.820;2022-10-17T13:08:21;5.93;;;2.20;;
8716;SDS011;4395;48.554;8.820;2022-10-17T13:10:28;4.30;;;1.77;;
8716;SDS011;4395;48.554;8.820;2022-10-17T13:12:34;3.93;;;1.60;;
8716;SDS011;4395;48.554;8.820;2022-10-17T13:14:41;4.80;;;1.60;;
8716;SDS011;4395;48.554;8.820;2022-10-17T13:16:49;3.03;;;1.47;;
8716;SDS011;4395;48.554;8.820;2022-10-17T13:18:54;3.20;;;1.53;;
8716;SDS011;4395;48.554;8.820;2022-10-17T13:20:58;4.83;;;1.40;;
8716;SDS011;4395;48.554;8.820;2022-10-17T13:23:02;2.57;;;1.40;;
8716;SDS011;4395;48.554;8.820;2022-10-17T13:25:05;2.67;;;1.50;;
8716;SDS011;4395;48.554;8.820;2022-10-17T13:27:21;5.90;;;1.80;;